Time;durP1;ratioP1;P1;durP2;ratioP2;P2;SDS_P1;SDS_P2;PMS_P1;PMS_P2;Temp;Humidity;BMP_temperature;BMP_pressure;BME280_temperature;BME280_humidity;BME280_pressure;Samples;Min_cycle;Max_cycle;Signal;HPM_P1;HPM_P2
2024/02/24 00:01:57;;;;;;;31.20;22.20;;;;;;;7.67;82.85;99348.17;107479;1253;66702;-39
2024/02/24 00:04:25;;;;;;;34.10;23.10;;;;;;;7.70;82.75;99346.77;107522;1258;71746;-38
2024/02/24 00:06:52;;;;;;;36.30;22.90;;;;;;;7.70;82.67;99346.09;107469;1253;60552;-40
2024/02/24 00:09:20;;;;;;;36.00;23.50;;;;;;;7.70;82.62;99344.39;107474;1254;59111;-40
2024/02/24 00:11:47;;;;;;;34.20;22.10;;;;;;;7.70;82.63;99345.00;107447;1253;72033;-40
2024/02/24 00:14:15;;;;;;;33.90;22.20;;;;;;;7.69;82.50;99346.91;107454;1253;67567;-39
2024/02/24 00:16:43;;;;;;;32.20;21.10;;;;;;;7.70;82.59;99346.08;107420;1256;72671;-39
2024/02/24 00:19:10;;;;;;;32.30;21.90;;;;;;;7.71;82.44;99346.05;107420;1256;60379;-40
2024/02/24 00:21:38;;;;;;;32.90;21.70;;;;;;;7.73;82.48;99349.04;107465;1259;59947;-40
2024/02/24 00:24:06;;;;;;;34.40;22.30;;;;;;;7.75;82.31;99352.16;107439;1254;73027;-40
2024/02/24 00:26:33;;;;;;;30.30;20.00;;;;;;;7.74;81.99;99352.91;107447;1253;67191;-40
2024/02/24 00:29:01;;;;;;;34.20;21.90;;;;;;;7.73;81.99;99354.04;107433;1254;72657;-40
2024/02/24 00:31:29;;;;;;;33.20;22.30;;;;;;;7.72;82.00;99348.45;107381;1254;61762;-40
2024/02/24 00:33:57;;;;;;;33.90;21.90;;;;;;;7.71;81.95;99348.90;107408;1253;60484;-40
2024/02/24 00:36:24;;;;;;;35.40;21.40;;;;;;;7.68;81.79;99349.66;107429;1253;73021;-39
2024/02/24 00:38:52;;;;;;;30.70;21.20;;;;;;;7.65;81.91;99347.95;107443;1254;67638;-39
2024/02/24 00:41:19;;;;;;;35.40;22.60;;;;;;;7.64;82.02;99347.00;107420;1259;72679;-40
2024/02/24 00:43:47;;;;;;;30.80;20.90;;;;;;;7.63;82.21;99345.86;107453;1254;60566;-40
2024/02/24 00:46:14;;;;;;;32.60;21.60;;;;;;;7.64;82.27;99352.15;107358;1259;59660;-40
2024/02/24 00:48:42;;;;;;;33.60;21.00;;;;;;;7.66;82.12;99353.84;107348;1254;73024;-39
2024/02/24 00:51:09;;;;;;;35.20;21.50;;;;;;;7.66;82.08;99354.91;107444;1254;67754;-40
2024/02/24 00:53:37;;;;;;;35.90;22.50;;;;;;;7.66;81.96;99353.65;107451;1259;72739;-40
2024/02/24 00:56:05;;;;;;;31.80;21.90;;;;;;;7.65;81.98;99354.64;107352;1256;60917;-40
2024/02/24 00:58:33;;;;;;;39.00;22.30;;;;;;;7.64;82.07;99358.41;107357;1254;60475;-39
2024/02/24 01:01:00;;;;;;;32.70;21.30;;;;;;;7.64;82.03;99352.84;107463;1255;73057;-40
2024/02/24 01:03:28;;;;;;;34.60;21.90;;;;;;;7.62;81.94;99351.10;107413;1254;67585;-39
2024/02/24 01:05:55;;;;;;;33.20;20.50;;;;;;;7.61;82.03;99344.64;107419;1254;72683;-39
2024/02/24 01:08:23;;;;;;;33.70;22.10;;;;;;;7.61;82.04;99347.11;107458;1256;60453;-40
2024/02/24 01:10:51;;;;;;;32.20;20.30;;;;;;;7.60;82.07;99343.85;107407;1254;59221;-39
2024/02/24 01:13:18;;;;;;;35.90;21.60;;;;;;;7.58;82.05;99343.27;107371;1256;73371;-39
2024/02/24 01:15:46;;;;;;;33.20;20.50;;;;;;;7.58;82.08;99342.26;107360;1256;67588;-39
2024/02/24 01:18:14;;;;;;;31.40;20.70;;;;;;;7.58;82.00;99342.28;107235;1256;72700;-40
2024/02/24 01:20:47;;;;;;;33.90;20.70;;;;;;;7.60;81.95;99346.02;107249;1257;61710;-39
2024/02/24 01:23:16;;;;;;;30.40;19.40;;;;;;;7.60;81.80;99350.17;107251;1256;60031;-40
2024/02/24 01:25:45;;;;;;;34.60;20.80;;;;;;;7.60;81.88;99343.15;107177;1257;73018;-40
2024/02/24 01:28:12;;;;;;;30.70;19.60;;;;;;;7.60;81.85;99341.69;107325;1259;68381;-40
2024/02/24 01:30:40;;;;;;;33.80;19.40;;;;;;;7.61;81.80;99339.85;107428;1254;72731;-40
2024/02/24 01:33:08;;;;;;;30.60;19.50;;;;;;;7.61;81.63;99342.10;107407;1259;61679;-39
2024/02/24 01:35:35;;;;;;;29.20;18.10;;;;;;;7.60;81.63;99339.79;107237;1254;59251;-39
2024/02/24 01:38:04;;;;;;;32.40;19.00;;;;;;;7.59;81.43;99337.90;107427;1259;73057;-39
2024/02/24 01:40:33;;;;;;;28.50;18.80;;;;;;;7.57;81.46;99332.14;107478;1254;66264;-40
2024/02/24 01:43:00;;;;;;;29.40;19.10;;;;;;;7.57;81.39;99328.48;107415;1254;71393;-40
2024/02/24 01:45:28;;;;;;;32.20;18.00;;;;;;;7.53;81.41;99326.01;107403;1254;60390;-39
2024/02/24 01:47:56;;;;;;;29.70;19.10;;;;;;;7.53;81.51;99323.05;107422;1254;59911;-40
2024/02/24 01:50:25;;;;;;;32.20;18.80;;;;;;;7.54;81.46;99324.80;107493;1257;71826;-39
2024/02/24 01:52:52;;;;;;;30.70;18.80;;;;;;;7.51;81.33;99319.91;107274;1255;67651;-39
2024/02/24 01:55:20;;;;;;;33.10;19.20;;;;;;;7.47;81.47;99319.65;107358;1254;72677;-39
2024/02/24 01:57:47;;;;;;;32.90;19.70;;;;;;;7.46;81.61;99321.38;107186;1256;60390;-39
2024/02/24 02:00:15;;;;;;;29.20;19.00;;;;;;;7.44;81.56;99320.56;107270;1254;59399;-39
2024/02/24 02:02:42;;;;;;;31.50;18.50;;;;;;;7.42;81.58;99323.27;107414;1254;73374;-39
2024/02/24 02:05:11;;;;;;;32.30;19.10;;;;;;;7.41;81.53;99321.62;107443;1254;67706;-40
2024/02/24 02:07:38;;;;;;;32.60;19.00;;;;;;;7.40;81.65;99319.98;107462;1254;72709;-39
2024/02/24 02:10:07;;;;;;;30.00;18.80;;;;;;;7.40;81.61;99324.84;107270;1254;61724;-39
2024/02/24 02:12:35;;;;;;;30.60;18.70;;;;;;;7.39;81.46;99322.90;107426;1254;59349;-39
2024/02/24 02:15:04;;;;;;;36.10;19.40;;;;;;;7.37;81.45;99325.96;107421;1254;73075;-40
2024/02/24 02:17:32;;;;;;;32.20;19.00;;;;;;;7.36;81.54;99328.94;107519;1254;66845;-40
2024/02/24 02:20:01;;;;;;;33.90;19.00;;;;;;;7.35;81.54;99335.85;107506;1254;72680;-39
2024/02/24 02:22:30;;;;;;;32.50;19.80;;;;;;;7.32;81.61;99330.36;107474;1254;59513;-40
2024/02/24 02:24:57;;;;;;;32.80;19.40;;;;;;;7.30;81.59;99335.00;107513;1254;60004;-39
2024/02/24 02:27:25;;;;;;;32.40;18.20;;;;;;;7.28;81.54;99335.94;107405;1257;71911;-40
2024/02/24 02:29:52;;;;;;;31.50;18.70;;;;;;;7.26;81.44;99335.11;107401;1254;65998;-40
2024/02/24 02:32:20;;;;;;;32.80;18.50;;;;;;;7.24;81.54;99337.84;107389;1259;71912;-40
2024/02/24 02:34:47;;;;;;;31.70;18.00;;;;;;;7.23;81.48;99342.34;107385;1256;60383;-40
2024/02/24 02:37:15;;;;;;;36.00;18.70;;;;;;;7.21;81.48;99343.89;107432;1254;60215;-39
2024/02/24 02:39:43;;;;;;;31.80;17.50;;;;;;;7.20;81.55;99343.17;107441;1256;73091;-40
2024/02/24 02:42:11;;;;;;;33.10;17.50;;;;;;;7.21;81.37;99343.25;107439;1254;65783;-40
2024/02/24 02:44:39;;;;;;;29.60;17.50;;;;;;;7.21;81.40;99340.27;107408;1257;72642;-39
2024/02/24 02:47:06;;;;;;;30.60;17.50;;;;;;;7.22;81.34;99339.69;107410;1255;61648;-40
2024/02/24 02:49:46;;;;;;;33.40;17.80;;;;;;;7.22;81.37;99342.01;107396;1256;58737;-40
2024/02/24 02:52:13;;;;;;;31.20;17.60;;;;;;;7.23;81.05;99346.19;107382;1254;73023;-40
2024/02/24 02:54:41;;;;;;;30.30;17.70;;;;;;;7.22;81.03;99346.83;107402;1254;67748;-39
2024/02/24 02:57:08;;;;;;;28.00;17.00;;;;;;;7.21;80.87;99352.67;107378;1254;72720;-40
2024/02/24 02:59:36;;;;;;;30.90;16.30;;;;;;;7.20;80.78;99354.88;107412;1259;60439;-39
2024/02/24 03:02:03;;;;;;;32.00;16.80;;;;;;;7.21;80.82;99359.21;107434;1254;60052;-39
2024/02/24 03:04:31;;;;;;;32.60;16.90;;;;;;;7.21;80.75;99360.77;107419;1254;73087;-39
2024/02/24 03:06:58;;;;;;;25.90;16.40;;;;;;;7.21;80.71;99364.59;107406;1259;67581;-39
2024/02/24 03:09:26;;;;;;;26.20;15.80;;;;;;;7.21;80.75;99364.61;107368;1257;70372;-39
2024/02/24 03:11:53;;;;;;;29.40;16.80;;;;;;;7.23;80.66;99366.67;107373;1254;61750;-39
2024/02/24 03:14:21;;;;;;;31.40;16.50;;;;;;;7.24;80.40;99370.73;107394;1254;60131;-39
2024/02/24 03:16:49;;;;;;;26.50;16.20;;;;;;;7.24;80.48;99371.27;107404;1256;73080;-39
2024/02/24 03:19:17;;;;;;;28.00;16.10;;;;;;;7.25;80.34;99370.68;107410;1254;67650;-39
2024/02/24 03:21:44;;;;;;;31.20;16.60;;;;;;;7.24;80.16;99372.50;107397;1256;71217;-39
2024/02/24 03:24:12;;;;;;;27.10;15.90;;;;;;;7.23;80.03;99374.77;107390;1256;59687;-39
2024/02/24 03:26:39;;;;;;;29.40;16.20;;;;;;;7.22;80.12;99379.56;107420;1254;59377;-39
2024/02/24 03:29:07;;;;;;;28.40;15.70;;;;;;;7.22;80.16;99378.48;107432;1254;72718;-39
2024/02/24 03:31:35;;;;;;;29.40;15.70;;;;;;;7.22;80.11;99376.81;107414;1254;67941;-39
2024/02/24 03:34:02;;;;;;;30.70;16.10;;;;;;;7.22;80.07;99377.97;107383;1254;72723;-39
2024/02/24 03:36:30;;;;;;;26.60;16.00;;;;;;;7.21;80.09;99375.54;107413;1256;61682;-39
2024/02/24 03:38:57;;;;;;;26.70;15.20;;;;;;;7.21;80.22;99376.39;107421;1254;60467;-39
2024/02/24 03:41:30;;;;;;;30.90;16.10;;;;;;;7.21;80.08;99382.02;107424;1259;72153;-38
2024/02/24 03:43:58;;;;;;;32.50;16.10;;;;;;;7.23;80.05;99386.38;107398;1254;66618;-39
2024/02/24 03:46:26;;;;;;;30.50;15.70;;;;;;;7.24;79.99;99382.56;107394;1259;73123;-39
2024/02/24 03:48:53;;;;;;;27.00;15.60;;;;;;;7.24;79.97;99385.58;107415;1254;61689;-39
2024/02/24 03:51:21;;;;;;;28.20;14.90;;;;;;;7.23;79.78;99387.94;107395;1254;61912;-39
2024/02/24 03:53:48;;;;;;;34.30;17.20;;;;;;;7.23;79.79;99384.63;107443;1255;73795;-39
2024/02/24 03:56:16;;;;;;;27.40;15.40;;;;;;;7.22;79.94;99383.88;107476;1259;67592;-39
2024/02/24 03:58:44;;;;;;;26.80;15.80;;;;;;;7.19;79.92;99382.72;107447;1254;72698;-39
2024/02/24 04:01:12;;;;;;;27.90;15.00;;;;;;;7.17;79.93;99378.33;107430;1254;61721;-39
2024/02/24 04:03:40;;;;;;;32.70;16.90;;;;;;;7.16;79.84;99374.86;107439;1254;60341;-39
2024/02/24 04:06:07;;;;;;;28.80;15.80;;;;;;;7.18;79.85;99373.46;107437;1254;72565;-39
2024/02/24 04:08:36;;;;;;;30.30;15.40;;;;;;;7.19;79.70;99368.06;107494;1254;67627;-39
2024/02/24 04:11:04;;;;;;;29.30;16.20;;;;;;;7.17;79.66;99368.17;107426;1254;72703;-39
2024/02/24 04:13:31;;;;;;;27.90;14.70;;;;;;;7.15;79.73;99373.83;107432;1255;59969;-39
2024/02/24 04:15:59;;;;;;;26.90;15.80;;;;;;;7.14;79.77;99369.63;107439;1254;60374;-39
2024/02/24 04:18:27;;;;;;;27.30;15.40;;;;;;;7.13;79.83;99371.20;107450;1254;72596;-39
2024/02/24 04:20:54;;;;;;;25.30;14.80;;;;;;;7.12;79.88;99372.48;107445;1254;67889;-39
2024/02/24 04:23:22;;;;;;;23.70;13.90;;;;;;;7.12;79.71;99377.79;107366;1254;72722;-39
2024/02/24 04:25:50;;;;;;;29.30;15.20;;;;;;;7.12;79.65;99381.94;107423;1256;61675;-39
2024/02/24 04:28:17;;;;;;;24.20;14.50;;;;;;;7.13;79.68;99384.46;107411;1254;60018;-39
2024/02/24 04:30:49;;;;;;;27.60;14.70;;;;;;;7.14;79.57;99381.39;107434;1254;73817;-39
2024/02/24 04:33:17;;;;;;;24.10;14.20;;;;;;;7.14;79.50;99385.55;107399;1256;67948;-39
2024/02/24 04:35:45;;;;;;;24.00;14.00;;;;;;;7.13;79.39;99381.42;107423;1256;71450;-39
2024/02/24 04:38:13;;;;;;;26.30;15.20;;;;;;;7.09;79.35;99380.88;107457;1254;60181;-39
2024/02/24 04:40:41;;;;;;;24.20;15.00;;;;;;;7.07;79.41;99384.88;107460;1254;59244;-39
2024/02/24 04:43:08;;;;;;;28.50;15.40;;;;;;;7.05;79.48;99382.92;107455;1254;73812;-40
2024/02/24 04:45:36;;;;;;;26.90;15.00;;;;;;;7.03;79.50;99388.36;107443;1259;66875;-39
2024/02/24 04:48:05;;;;;;;27.60;15.40;;;;;;;7.04;79.42;99383.59;107437;1254;72651;-39
2024/02/24 04:50:33;;;;;;;25.50;13.80;;;;;;;7.02;79.32;99384.02;107459;1254;61698;-39
2024/02/24 04:53:00;;;;;;;28.60;14.20;;;;;;;7.02;79.35;99384.16;107396;1254;60387;-39
2024/02/24 04:55:28;;;;;;;23.50;13.20;;;;;;;7.03;79.35;99381.32;107431;1254;72541;-40
2024/02/24 04:57:55;;;;;;;24.80;13.80;;;;;;;7.02;79.11;99380.86;107422;1254;65594;-39
2024/02/24 05:00:23;;;;;;;26.80;14.10;;;;;;;7.02;79.12;99393.77;107395;1254;71457;-40
2024/02/24 05:02:50;;;;;;;20.60;12.90;;;;;;;7.01;79.17;99399.75;107372;1254;61699;-39
2024/02/24 05:05:18;;;;;;;21.60;13.20;;;;;;;7.00;79.16;99399.65;107426;1254;60380;-39
2024/02/24 05:07:46;;;;;;;23.40;13.30;;;;;;;7.01;79.04;99400.85;107436;1254;73833;-39
2024/02/24 05:10:14;;;;;;;21.70;13.60;;;;;;;7.02;78.95;99405.11;107424;1254;67592;-39
2024/02/24 05:12:47;;;;;;;25.80;14.10;;;;;;;7.02;78.73;99408.11;107399;1256;72677;-39
2024/02/24 05:15:17;;;;;;;25.60;14.00;;;;;;;7.00;78.64;99412.83;107421;1254;60358;-40
2024/02/24 05:17:44;;;;;;;21.50;13.00;;;;;;;6.97;78.68;99416.18;107489;1254;60446;-39
2024/02/24 05:20:13;;;;;;;24.00;13.70;;;;;;;6.94;78.64;99423.00;107419;1254;73872;-39
2024/02/24 05:22:40;;;;;;;27.90;12.90;;;;;;;6.92;78.62;99420.04;107440;1254;67914;-39
2024/02/24 05:25:09;;;;;;;19.50;12.80;;;;;;;6.90;78.53;99419.80;107373;1257;72735;-38
2024/02/24 05:27:37;;;;;;;21.60;12.00;;;;;;;6.90;78.59;99422.97;107395;1256;60507;-40
2024/02/24 05:30:05;;;;;;;23.40;12.10;;;;;;;6.92;78.57;99424.64;107398;1259;60299;-40
2024/02/24 05:32:33;;;;;;;22.20;11.70;;;;;;;6.93;78.39;99429.52;107426;1254;73841;-39
2024/02/24 05:35:00;;;;;;;21.40;11.30;;;;;;;6.93;78.22;99432.73;107413;1259;67694;-39
2024/02/24 05:37:28;;;;;;;19.10;11.20;;;;;;;6.92;78.26;99434.73;107412;1254;72801;-39
2024/02/24 05:39:58;;;;;;;21.20;11.40;;;;;;;6.92;78.15;99434.52;107402;1254;61770;-40
2024/02/24 05:42:26;;;;;;;20.90;10.80;;;;;;;6.94;78.13;99437.33;107410;1255;60298;-40
2024/02/24 05:44:54;;;;;;;17.70;9.50;;;;;;;6.96;77.75;99440.71;107445;1254;73790;-40
2024/02/24 05:47:21;;;;;;;18.60;10.60;;;;;;;6.96;77.68;99443.88;107406;1255;67621;-39
2024/02/24 05:49:49;;;;;;;20.00;11.30;;;;;;;6.98;77.74;99451.86;107400;1256;72648;-39
2024/02/24 05:52:16;;;;;;;18.00;10.80;;;;;;;7.00;77.59;99454.64;107419;1257;60438;-39
2024/02/24 05:54:44;;;;;;;19.20;10.50;;;;;;;7.01;77.61;99455.61;107469;1254;60591;-39
2024/02/24 05:57:11;;;;;;;20.30;10.50;;;;;;;7.03;77.59;99456.66;107430;1254;73814;-39
2024/02/24 05:59:39;;;;;;;19.40;10.60;;;;;;;7.05;77.26;99454.59;107402;1254;67562;-39
2024/02/24 06:02:06;;;;;;;20.60;11.00;;;;;;;7.05;77.02;99453.58;107422;1256;73122;-39
2024/02/24 06:04:34;;;;;;;19.00;10.40;;;;;;;7.07;76.82;99456.17;107400;1254;61780;-39
2024/02/24 06:07:02;;;;;;;17.70;10.60;;;;;;;7.07;76.49;99460.80;107400;1254;60391;-39
2024/02/24 06:09:29;;;;;;;17.50;9.60;;;;;;;7.07;76.53;99465.05;107417;1254;73565;-40
2024/02/24 06:11:57;;;;;;;16.70;9.40;;;;;;;7.09;76.15;99470.91;107480;1258;67895;-39
2024/02/24 06:14:24;;;;;;;20.30;9.80;;;;;;;7.10;76.11;99465.48;107486;1254;72494;-39
2024/02/24 06:16:52;;;;;;;16.70;9.80;;;;;;;7.13;76.00;99465.85;107501;1254;61848;-39
2024/02/24 06:19:20;;;;;;;19.70;10.10;;;;;;;7.15;75.85;99467.55;107517;1254;60419;-39
2024/02/24 06:21:47;;;;;;;18.60;10.20;;;;;;;7.16;75.70;99468.59;107484;1254;73959;-39
2024/02/24 06:24:15;;;;;;;18.50;9.90;;;;;;;7.14;75.53;99470.70;107446;1257;67539;-39
2024/02/24 06:26:43;;;;;;;18.80;10.20;;;;;;;7.13;75.60;99468.55;107408;1254;71697;-40
2024/02/24 06:29:11;;;;;;;21.20;10.10;;;;;;;7.14;75.48;99474.61;107389;1254;60398;-39
2024/02/24 06:31:39;;;;;;;20.80;10.70;;;;;;;7.14;75.25;99470.70;107415;1254;60385;-40
2024/02/24 06:34:07;;;;;;;14.60;9.40;;;;;;;7.14;75.33;99474.06;107405;1254;73845;-40
2024/02/24 06:36:36;;;;;;;16.90;9.00;;;;;;;7.15;75.03;99478.94;107381;1254;67544;-40
2024/02/24 06:39:03;;;;;;;14.50;9.30;;;;;;;7.17;75.18;99473.31;107410;1257;72684;-40
2024/02/24 06:41:31;;;;;;;18.40;9.30;;;;;;;7.20;75.05;99474.66;107362;1254;61294;-40
2024/02/24 06:43:58;;;;;;;20.00;10.70;;;;;;;7.22;74.83;99470.73;107392;1254;60363;-40
2024/02/24 06:46:26;;;;;;;17.80;10.80;;;;;;;7.25;74.43;99470.20;107366;1256;74330;-40
2024/02/24 06:48:54;;;;;;;18.80;10.20;;;;;;;7.26;74.55;99466.70;107408;1255;67687;-40
2024/02/24 06:51:22;;;;;;;21.90;11.20;;;;;;;7.26;74.68;99468.39;107460;1255;72802;-40
2024/02/24 06:53:49;;;;;;;23.30;10.90;;;;;;;7.28;74.46;99469.52;107372;1255;61713;-40
2024/02/24 06:56:19;;;;;;;17.60;10.50;;;;;;;7.29;74.14;99466.66;107375;1254;58748;-40
2024/02/24 06:58:46;;;;;;;18.90;9.60;;;;;;;7.31;74.14;99461.23;107363;1257;73838;-40
2024/02/24 07:01:21;;;;;;;22.70;9.60;;;;;;;7.33;73.89;99468.77;107363;1254;67572;-40
2024/02/24 07:03:48;;;;;;;17.60;9.40;;;;;;;7.34;73.75;99468.95;107444;1256;72699;-40
2024/02/24 07:06:16;;;;;;;18.00;9.70;;;;;;;7.36;73.80;99472.96;107384;1259;60424;-40
2024/02/24 07:08:45;;;;;;;18.60;8.90;;;;;;;7.39;73.80;99474.85;107424;1254;60479;-39
2024/02/24 07:11:13;;;;;;;16.40;8.60;;;;;;;7.46;73.68;99474.42;107408;1257;73821;-39
2024/02/24 07:13:41;;;;;;;17.60;8.60;;;;;;;7.51;73.61;99468.36;107397;1257;67553;-39
2024/02/24 07:16:08;;;;;;;20.90;9.00;;;;;;;7.58;73.54;99474.91;107374;1256;72939;-39
2024/02/24 07:18:36;;;;;;;14.80;8.90;;;;;;;7.62;72.80;99474.27;107362;1256;60424;-39
2024/02/24 07:21:05;;;;;;;17.10;9.70;;;;;;;7.64;72.72;99463.94;106687;1257;1003361;-39
2024/02/24 07:23:33;;;;;;;14.90;8.40;;;;;;;7.65;72.55;99454.42;107352;1254;73819;-39
2024/02/24 07:26:01;;;;;;;16.40;8.70;;;;;;;7.69;72.50;99456.08;107285;1254;68228;-40
2024/02/24 07:28:28;;;;;;;14.80;8.30;;;;;;;7.74;72.49;99443.20;107349;1255;71701;-39
2024/02/24 07:30:56;;;;;;;18.30;9.00;;;;;;;7.79;72.30;99439.88;107321;1257;61705;-40
2024/02/24 07:33:23;;;;;;;15.40;8.80;;;;;;;7.83;72.02;99433.30;107376;1254;60505;-39
2024/02/24 07:35:51;;;;;;;18.00;9.70;;;;;;;7.87;71.85;99425.33;107396;1256;73968;-40
2024/02/24 07:38:19;;;;;;;23.00;9.90;;;;;;;7.90;71.78;99426.02;107378;1259;66271;-40
2024/02/24 07:40:47;;;;;;;18.70;9.30;;;;;;;7.90;71.53;99422.95;107355;1259;72516;-39
2024/02/24 07:43:15;;;;;;;19.10;11.00;;;;;;;7.92;71.24;99421.60;107372;1254;60400;-39
2024/02/24 07:45:43;;;;;;;18.20;10.20;;;;;;;7.93;71.36;99416.64;107394;1254;60514;-40
2024/02/24 07:48:11;;;;;;;21.60;9.80;;;;;;;7.95;71.40;99417.30;107347;1254;74296;-40
2024/02/24 07:50:39;;;;;;;20.40;10.00;;;;;;;7.98;71.16;99425.89;107401;1254;66593;-39
2024/02/24 07:53:07;;;;;;;13.60;8.70;;;;;;;8.01;70.92;99421.52;107377;1256;72736;-40
2024/02/24 07:55:35;;;;;;;18.10;9.10;;;;;;;8.06;70.91;99423.27;107255;1256;61669;-39
2024/02/24 07:58:03;;;;;;;19.70;9.50;;;;;;;8.12;70.94;99425.52;107333;1255;60377;-39
2024/02/24 08:00:30;;;;;;;16.70;9.40;;;;;;;8.19;70.85;99432.38;107389;1257;74303;-39
2024/02/24 08:02:58;;;;;;;18.80;9.60;;;;;;;8.23;70.16;99434.20;107390;1259;67599;-39
2024/02/24 08:05:26;;;;;;;17.50;8.90;;;;;;;8.27;70.18;99435.02;107369;1255;73906;-39
2024/02/24 08:07:53;;;;;;;17.60;9.00;;;;;;;8.30;70.34;99437.21;107382;1255;62276;-39
2024/02/24 08:10:21;;;;;;;15.40;9.30;;;;;;;8.36;70.43;99444.77;107345;1257;60336;-39
2024/02/24 08:12:49;;;;;;;15.90;8.20;;;;;;;8.45;70.21;99446.89;107392;1257;73970;-39
2024/02/24 08:15:16;;;;;;;16.40;8.80;;;;;;;8.53;69.74;99440.18;107344;1257;67551;-39
2024/02/24 08:17:44;;;;;;;13.30;9.20;;;;;;;8.57;69.06;99443.16;107355;1256;71393;-39
2024/02/24 08:20:13;;;;;;;20.20;9.30;;;;;;;8.60;69.17;99441.21;107353;1259;60435;-39
2024/02/24 08:22:42;;;;;;;15.00;9.30;;;;;;;8.61;68.49;99444.89;107373;1254;60967;-42
2024/02/24 08:25:09;;;;;;;12.90;8.50;;;;;;;8.61;68.54;99441.96;107354;1254;72928;-39
2024/02/24 08:27:37;;;;;;;13.90;9.30;;;;;;;8.61;68.63;99440.40;107343;1257;66294;-39
2024/02/24 08:30:05;;;;;;;18.20;9.90;;;;;;;8.63;68.78;99435.36;107373;1254;72372;-39
2024/02/24 08:32:33;;;;;;;15.20;8.40;;;;;;;8.67;68.86;99438.94;107369;1254;61652;-39
2024/02/24 08:35:01;;;;;;;15.00;8.90;;;;;;;8.70;68.43;99444.44;107338;1256;60408;-39
2024/02/24 08:37:28;;;;;;;19.90;9.40;;;;;;;8.71;68.29;99445.54;107331;1254;72652;-39
2024/02/24 08:39:56;;;;;;;19.30;9.90;;;;;;;8.71;68.69;99437.53;107382;1257;68094;-39
2024/02/24 08:42:23;;;;;;;13.60;9.00;;;;;;;8.69;68.37;99445.95;107349;1259;70916;-39
2024/02/24 08:44:51;;;;;;;16.40;9.00;;;;;;;8.68;68.46;99445.07;107360;1256;60316;-39
2024/02/24 08:47:18;;;;;;;15.80;9.60;;;;;;;8.66;68.42;99435.52;107357;1256;60387;-40
2024/02/24 08:49:46;;;;;;;16.40;9.70;;;;;;;8.66;68.42;99440.62;107336;1257;74270;-40
2024/02/24 08:52:14;;;;;;;14.40;8.70;;;;;;;8.67;68.65;99443.56;107328;1256;67862;-40
2024/02/24 08:54:43;;;;;;;;;;;;;;;8.67;68.98;99453.07;107319;1256;73819;-40
2024/02/24 08:57:11;;;;;;;17.60;9.40;;;;;;;8.67;69.20;99448.30;107389;1255;60543;-40
2024/02/24 08:59:38;;;;;;;19.10;10.40;;;;;;;8.62;69.53;99436.41;107364;1259;60302;-40
2024/02/24 09:02:06;;;;;;;15.60;10.40;;;;;;;8.68;69.64;99445.77;107335;1257;73827;-40
2024/02/24 09:04:37;;;;;;;19.10;10.40;;;;;;;8.71;69.63;99446.25;107359;1256;67588;-40
2024/02/24 09:07:05;;;;;;;14.60;10.00;;;;;;;8.75;69.54;99442.48;107363;1256;71116;-40
2024/02/24 09:09:33;;;;;;;14.90;9.30;;;;;;;8.78;69.55;99449.05;107360;1257;61768;-40
2024/02/24 09:12:01;;;;;;;17.00;9.80;;;;;;;8.80;69.44;99451.52;107324;1257;60033;-40
2024/02/24 09:14:28;;;;;;;18.20;10.90;;;;;;;8.83;69.65;99452.80;107361;1254;73793;-40
2024/02/24 09:16:56;;;;;;;18.00;10.20;;;;;;;8.84;69.74;99459.55;107354;1257;67572;-40
2024/02/24 09:19:26;;;;;;;19.00;10.90;;;;;;;8.85;69.86;99456.11;107397;1255;72673;-40
2024/02/24 09:21:53;;;;;;;;;;;;;;;8.83;69.88;99460.55;107378;1257;60521;-40
2024/02/24 09:24:21;;;;;;;21.60;11.30;;;;;;;8.80;70.08;99456.89;107393;1257;60283;-40
2024/02/24 09:26:48;;;;;;;16.80;10.70;;;;;;;8.79;70.25;99458.03;107331;1259;73865;-40
2024/02/24 09:29:16;;;;;;;16.50;10.30;;;;;;;8.80;70.61;99462.61;107463;1258;67391;-40
2024/02/24 09:31:43;;;;;;;16.70;11.10;;;;;;;8.83;70.45;99461.30;107335;1254;72676;-40
2024/02/24 09:34:11;;;;;;;19.70;11.10;;;;;;;8.87;70.57;99460.65;107334;1257;60435;-40
2024/02/24 09:36:41;;;;;;;15.70;9.60;;;;;;;8.89;70.64;99462.73;107340;1254;60309;-40
2024/02/24 09:39:10;;;;;;;19.10;10.70;;;;;;;8.94;70.75;99459.85;107315;1256;73854;-39
2024/02/24 09:41:39;;;;;;;18.70;10.60;;;;;;;8.99;70.66;99455.96;107350;1256;67710;-39
2024/02/24 09:44:06;;;;;;;20.50;10.50;;;;;;;9.05;70.28;99457.89;107403;1255;72464;-39
2024/02/24 09:46:34;;;;;;;15.10;9.60;;;;;;;9.08;70.04;99458.67;107287;1257;61804;-39
2024/02/24 09:49:04;;;;;;;18.90;10.00;;;;;;;9.10;70.31;99457.41;107369;1257;60290;-39
2024/02/24 09:51:33;;;;;;;15.60;9.90;;;;;;;9.14;70.33;99464.54;107258;1257;73938;-39
2024/02/24 09:54:00;;;;;;;15.60;9.60;;;;;;;9.19;69.88;99468.45;107361;1257;67953;-39
2024/02/24 09:56:28;;;;;;;16.90;10.70;;;;;;;9.20;69.87;99475.66;107345;1259;71863;-39
2024/02/24 09:58:56;;;;;;;17.10;10.30;;;;;;;9.20;69.99;99477.91;107335;1256;60431;-39
2024/02/24 10:01:24;;;;;;;17.30;9.70;;;;;;;9.19;70.27;99474.19;107130;1262;60326;-39
2024/02/24 10:03:51;;;;;;;15.50;9.20;;;;;;;9.20;70.18;99479.30;107368;1255;73085;-39
2024/02/24 10:06:19;;;;;;;19.00;10.10;;;;;;;9.19;70.19;99475.80;107291;1256;67593;-39
2024/02/24 10:08:47;;;;;;;15.10;8.70;;;;;;;9.21;70.18;99476.15;107336;1256;72686;-39
2024/02/24 10:11:15;;;;;;;18.20;9.80;;;;;;;9.23;70.14;99475.73;107469;1254;61731;-39
2024/02/24 10:13:43;;;;;;;15.60;9.30;;;;;;;9.22;69.84;99484.46;107346;1255;60294;-39
2024/02/24 10:16:12;;;;;;;16.60;10.10;;;;;;;9.21;70.07;99472.98;107337;1255;73826;-40
2024/02/24 10:18:40;;;;;;;16.90;9.90;;;;;;;9.18;70.16;99473.08;107333;1256;67131;-39
2024/02/24 10:21:08;;;;;;;16.80;9.70;;;;;;;9.16;70.25;99480.52;107143;1257;73096;-39
2024/02/24 10:23:36;;;;;;;17.90;9.50;;;;;;;9.15;70.30;99480.51;107316;1257;61802;-39
2024/02/24 10:26:04;;;;;;;17.70;8.70;;;;;;;9.16;70.66;99468.98;107341;1259;60487;-39
2024/02/24 10:28:32;;;;;;;16.90;9.90;;;;;;;9.19;70.93;99480.29;107413;1257;72965;-39
2024/02/24 10:31:00;;;;;;;17.90;9.00;;;;;;;9.22;70.64;99483.84;107419;1255;66781;-39
2024/02/24 10:33:29;;;;;;;15.40;9.90;;;;;;;9.23;70.52;99480.70;107297;1257;72656;-39
2024/02/24 10:36:01;;;;;;;18.60;10.20;;;;;;;9.22;70.46;99478.58;107393;1254;60396;-39
2024/02/24 10:38:29;;;;;;;16.00;9.20;;;;;;;9.20;70.72;99474.50;107386;1255;60431;-39
2024/02/24 10:41:08;;;;;;;14.90;9.50;;;;;;;9.19;70.89;99472.61;107343;1256;76009;-39
2024/02/24 10:43:36;;;;;;;16.20;8.80;;;;;;;9.20;71.01;99461.75;107326;1254;68213;-39
2024/02/24 10:46:03;;;;;;;16.20;9.20;;;;;;;9.23;71.12;99464.23;107363;1259;72342;-39
2024/02/24 10:48:31;;;;;;;17.60;9.70;;;;;;;9.27;71.41;99461.02;107354;1256;61790;-39
2024/02/24 10:50:59;;;;;;;17.60;8.90;;;;;;;9.33;71.26;99462.16;107351;1254;59673;-39
2024/02/24 10:53:27;;;;;;;15.20;9.00;;;;;;;9.39;71.08;99464.40;107092;1254;72739;-40
2024/02/24 10:55:56;;;;;;;16.40;9.20;;;;;;;9.42;70.88;99464.54;107114;1257;70234;-39
2024/02/24 10:58:24;;;;;;;17.00;9.70;;;;;;;9.42;70.83;99455.98;107337;1257;72719;-40
2024/02/24 11:00:53;;;;;;;16.40;9.10;;;;;;;9.42;70.89;99457.54;107299;1257;61739;-39
2024/02/24 11:03:21;;;;;;;15.80;9.80;;;;;;;9.43;70.82;99465.23;107395;1256;60425;-40
2024/02/24 11:05:50;;;;;;;16.40;9.40;;;;;;;9.45;70.92;99462.08;107300;1255;74001;-39
2024/02/24 11:08:37;;;;;;;20.50;10.30;;;;;;;9.47;70.85;99459.42;107312;1257;67558;-39
2024/02/24 11:11:08;;;;;;;13.60;8.00;;;;;;;9.51;71.10;99453.89;107327;1259;71536;-39
2024/02/24 11:13:36;;;;;;;17.40;9.80;;;;;;;9.58;71.04;99454.52;107367;1256;59591;-39
2024/02/24 11:16:08;;;;;;;15.60;9.40;;;;;;;9.63;70.59;99455.41;107334;1254;60419;-39
2024/02/24 11:18:48;;;;;;;17.00;9.50;;;;;;;9.65;70.60;99448.81;107162;1254;73979;-38
2024/02/24 11:21:16;;;;;;;18.30;9.20;;;;;;;9.68;71.02;99449.58;107343;1256;68809;-39
2024/02/24 11:23:44;;;;;;;13.40;8.90;;;;;;;9.72;70.77;99443.55;107342;1259;73626;-39